sensor_id;sensor_type;location;lat;lon;timestamp;P1;durP1;ratioP1;P2;durP2;ratioP2
24173;SDS011;12324;48.146;11.502;2024-02-21T00:00:51;9.13;;;2.75;;
24173;SDS011;12324;48.146;11.502;2024-02-21T00:03:19;10.32;;;3.25;;
24173;SDS011;12324;48.146;11.502;2024-02-21T00:05:46;9.80;;;2.60;;
24173;SDS011;12324;48.146;11.502;2024-02-21T00:08:13;8.85;;;3.25;;
24173;SDS011;12324;48.146;11.502;2024-02-21T00:10:41;6.38;;;2.75;;
24173;SDS011;12324;48.146;11.502;2024-02-21T00:13:08;12.73;;;3.42;;
24173;SDS011;12324;48.146;11.502;2024-02-21T00:15:35;9.00;;;2.80;;
24173;SDS011;12324;48.146;11.502;2024-02-21T00:18:03;11.48;;;3.10;;
24173;SDS011;12324;48.146;11.502;2024-02-21T00:20:30;9.23;;;3.00;;
24173;SDS011;12324;48.146;11.502;2024-02-21T00:22:58;9.52;;;2.90;;
24173;SDS011;12324;48.146;11.502;2024-02-21T00:25:25;15.18;;;3.20;;
24173;SDS011;12324;48.146;11.502;2024-02-21T00:27:52;11.10;;;3.00;;
24173;SDS011;12324;48.146;11.502;2024-02-21T00:30:20;13.40;;;3.47;;
24173;SDS011;12324;48.146;11.502;2024-02-21T00:32:47;10.10;;;2.80;;
24173;SDS011;12324;48.146;11.502;2024-02-21T00:35:14;9.80;;;3.10;;
24173;SDS011;12324;48.146;11.502;2024-02-21T00:37:42;9.43;;;2.90;;
24173;SDS011;12324;48.146;11.502;2024-02-21T00:40:09;8.40;;;2.53;;
24173;SDS011;12324;48.146;11.502;2024-02-21T00:42:36;12.95;;;3.05;;
24173;SDS011;12324;48.146;11.502;2024-02-21T00:45:03;9.20;;;3.05;;
24173;SDS011;12324;48.146;11.502;2024-02-21T00:47:31;10.15;;;3.88;;
24173;SDS011;12324;48.146;11.502;2024-02-21T00:49:58;9.52;;;2.60;;
24173;SDS011;12324;48.146;11.502;2024-02-21T00:52:27;6.05;;;2.78;;
24173;SDS011;12324;48.146;11.502;2024-02-21T00:54:54;14.95;;;3.45;;
24173;SDS011;12324;48.146;11.502;2024-02-21T00:57:21;8.55;;;2.78;;
24173;SDS011;12324;48.146;11.502;2024-02-21T00:59:50;10.02;;;3.25;;
24173;SDS011;12324;48.146;11.502;2024-02-21T01:02:17;9.27;;;3.20;;
24173;SDS011;12324;48.146;11.502;2024-02-21T01:04:44;8.23;;;2.92;;
24173;SDS011;12324;48.146;11.502;2024-02-21T01:07:11;9.20;;;3.10;;
24173;SDS011;12324;48.146;11.502;2024-02-21T01:09:39;12.77;;;3.28;;
24173;SDS011;12324;48.146;11.502;2024-02-21T01:12:06;6.03;;;2.97;;
24173;SDS011;12324;48.146;11.502;2024-02-21T01:14:33;10.65;;;3.33;;
24173;SDS011;12324;48.146;11.502;2024-02-21T01:17:00;6.68;;;2.70;;
24173;SDS011;12324;48.146;11.502;2024-02-21T01:19:27;6.43;;;3.13;;
24173;SDS011;12324;48.146;11.502;2024-02-21T01:21:55;8.23;;;3.13;;
24173;SDS011;12324;48.146;11.502;2024-02-21T01:24:22;13.50;;;3.47;;
24173;SDS011;12324;48.146;11.502;2024-02-21T01:26:50;9.25;;;2.58;;
24173;SDS011;12324;48.146;11.502;2024-02-21T01:29:17;8.73;;;3.05;;
24173;SDS011;12324;48.146;11.502;2024-02-21T01:31:44;11.75;;;3.40;;
24173;SDS011;12324;48.146;11.502;2024-02-21T01:34:11;8.43;;;2.60;;
24173;SDS011;12324;48.146;11.502;2024-02-21T01:36:39;8.65;;;2.90;;
24173;SDS011;12324;48.146;11.502;2024-02-21T01:39:07;5.22;;;2.83;;
24173;SDS011;12324;48.146;11.502;2024-02-21T01:41:34;7.50;;;2.55;;
24173;SDS011;12324;48.146;11.502;2024-02-21T01:44:01;8.82;;;3.38;;
24173;SDS011;12324;48.146;11.502;2024-02-21T01:46:29;6.93;;;3.28;;
24173;SDS011;12324;48.146;11.502;2024-02-21T01:48:57;5.72;;;2.65;;
24173;SDS011;12324;48.146;11.502;2024-02-21T01:51:25;6.68;;;3.17;;
24173;SDS011;12324;48.146;11.502;2024-02-21T01:53:52;10.07;;;3.92;;
24173;SDS011;12324;48.146;11.502;2024-02-21T01:56:20;7.65;;;2.90;;
24173;SDS011;12324;48.146;11.502;2024-02-21T01:58:48;8.05;;;2.75;;
24173;SDS011;12324;48.146;11.502;2024-02-21T02:01:15;7.28;;;2.70;;
24173;SDS011;12324;48.146;11.502;2024-02-21T02:03:47;8.07;;;2.67;;
24173;SDS011;12324;48.146;11.502;2024-02-21T02:06:15;7.10;;;2.75;;
24173;SDS011;12324;48.146;11.502;2024-02-21T02:08:42;8.77;;;3.03;;
24173;SDS011;12324;48.146;11.502;2024-02-21T02:11:10;6.07;;;2.78;;
24173;SDS011;12324;48.146;11.502;2024-02-21T02:13:37;10.80;;;3.20;;
24173;SDS011;12324;48.146;11.502;2024-02-21T02:16:04;9.82;;;3.72;;
24173;SDS011;12324;48.146;11.502;2024-02-21T02:18:31;8.75;;;2.88;;
24173;SDS011;12324;48.146;11.502;2024-02-21T02:20:59;7.20;;;3.05;;
24173;SDS011;12324;48.146;11.502;2024-02-21T02:23:29;8.70;;;3.17;;
24173;SDS011;12324;48.146;11.502;2024-02-21T02:26:00;5.40;;;2.55;;
24173;SDS011;12324;48.146;11.502;2024-02-21T02:28:28;6.70;;;2.97;;
24173;SDS011;12324;48.146;11.502;2024-02-21T02:30:55;7.10;;;3.10;;
24173;SDS011;12324;48.146;11.502;2024-02-21T02:33:22;8.60;;;2.72;;
24173;SDS011;12324;48.146;11.502;2024-02-21T02:35:50;10.50;;;2.63;;
24173;SDS011;12324;48.146;11.502;2024-02-21T02:38:17;7.38;;;2.53;;
24173;SDS011;12324;48.146;11.502;2024-02-21T02:40:44;6.45;;;2.60;;
24173;SDS011;12324;48.146;11.502;2024-02-21T02:43:12;8.15;;;2.67;;
24173;SDS011;12324;48.146;11.502;2024-02-21T02:45:39;7.13;;;2.53;;
24173;SDS011;12324;48.146;11.502;2024-02-21T02:48:06;10.13;;;3.10;;
24173;SDS011;12324;48.146;11.502;2024-02-21T02:50:34;7.75;;;2.85;;
24173;SDS011;12324;48.146;11.502;2024-02-21T02:53:01;6.95;;;2.28;;
24173;SDS011;12324;48.146;11.502;2024-02-21T02:55:28;7.32;;;2.78;;
24173;SDS011;12324;48.146;11.502;2024-02-21T02:57:55;6.20;;;2.45;;
24173;SDS011;12324;48.146;11.502;2024-02-21T03:00:23;6.07;;;2.45;;
24173;SDS011;12324;48.146;11.502;2024-02-21T03:02:52;5.80;;;2.53;;
24173;SDS011;12324;48.146;11.502;2024-02-21T03:05:20;6.25;;;2.45;;
24173;SDS011;12324;48.146;11.502;2024-02-21T03:07:48;4.63;;;2.30;;
24173;SDS011;12324;48.146;11.502;2024-02-21T03:10:16;7.60;;;2.90;;
24173;SDS011;12324;48.146;11.502;2024-02-21T03:12:44;9.35;;;2.97;;
24173;SDS011;12324;48.146;11.502;2024-02-21T03:15:12;4.88;;;2.30;;
24173;SDS011;12324;48.146;11.502;2024-02-21T03:17:40;9.30;;;2.47;;
24173;SDS011;12324;48.146;11.502;2024-02-21T03:20:07;5.30;;;2.53;;
24173;SDS011;12324;48.146;11.502;2024-02-21T03:22:37;4.85;;;2.35;;
24173;SDS011;12324;48.146;11.502;2024-02-21T03:25:05;8.80;;;2.40;;
24173;SDS011;12324;48.146;11.502;2024-02-21T03:27:33;4.53;;;2.10;;
24173;SDS011;12324;48.146;11.502;2024-02-21T03:30:00;6.45;;;2.08;;
24173;SDS011;12324;48.146;11.502;2024-02-21T03:32:27;3.38;;;2.00;;
24173;SDS011;12324;48.146;11.502;2024-02-21T03:34:56;8.55;;;2.30;;
24173;SDS011;12324;48.146;11.502;2024-02-21T03:37:23;7.07;;;2.20;;
24173;SDS011;12324;48.146;11.502;2024-02-21T03:39:50;5.30;;;2.40;;
24173;SDS011;12324;48.146;11.502;2024-02-21T03:42:17;4.95;;;2.13;;
24173;SDS011;12324;48.146;11.502;2024-02-21T03:44:45;7.35;;;2.63;;
24173;SDS011;12324;48.146;11.502;2024-02-21T03:47:12;5.47;;;2.10;;
24173;SDS011;12324;48.146;11.502;2024-02-21T03:49:39;5.55;;;1.80;;
24173;SDS011;12324;48.146;11.502;2024-02-21T03:52:06;5.03;;;2.40;;
24173;SDS011;12324;48.146;11.502;2024-02-21T03:54:34;5.55;;;1.85;;
24173;SDS011;12324;48.146;11.502;2024-02-21T03:57:01;4.80;;;1.77;;
24173;SDS011;12324;48.146;11.502;2024-02-21T03:59:29;3.47;;;2.10;;
24173;SDS011;12324;48.146;11.502;2024-02-21T04:01:56;3.47;;;1.75;;
24173;SDS011;12324;48.146;11.502;2024-02-21T04:04:23;5.13;;;2.10;;
24173;SDS011;12324;48.146;11.502;2024-02-21T04:06:51;7.78;;;2.45;;
24173;SDS011;12324;48.146;11.502;2024-02-21T04:09:18;6.35;;;2.00;;
24173;SDS011;12324;48.146;11.502;2024-02-21T04:11:45;8.15;;;2.38;;
24173;SDS011;12324;48.146;11.502;2024-02-21T04:14:12;4.30;;;1.98;;
24173;SDS011;12324;48.146;11.502;2024-02-21T04:16:40;6.43;;;1.80;;
24173;SDS011;12324;48.146;11.502;2024-02-21T04:19:07;4.03;;;1.88;;
24173;SDS011;12324;48.146;11.502;2024-02-21T04:21:35;6.70;;;2.00;;
24173;SDS011;12324;48.146;11.502;2024-02-21T04:24:02;4.50;;;1.95;;
24173;SDS011;12324;48.146;11.502;2024-02-21T04:26:32;3.20;;;1.80;;
24173;SDS011;12324;48.146;11.502;2024-02-21T04:28:59;2.60;;;1.90;;
24173;SDS011;12324;48.146;11.502;2024-02-21T04:31:27;6.20;;;2.00;;
24173;SDS011;12324;48.146;11.502;2024-02-21T04:33:55;4.55;;;1.80;;
24173;SDS011;12324;48.146;11.502;2024-02-21T04:36:22;6.07;;;2.08;;
24173;SDS011;12324;48.146;11.502;2024-02-21T04:38:50;4.90;;;2.08;;
24173;SDS011;12324;48.146;11.502;2024-02-21T04:41:17;3.85;;;1.77;;
24173;SDS011;12324;48.146;11.502;2024-02-21T04:43:45;5.72;;;2.03;;
24173;SDS011;12324;48.146;11.502;2024-02-21T04:46:13;5.22;;;1.70;;
24173;SDS011;12324;48.146;11.502;2024-02-21T04:48:42;5.57;;;2.03;;
24173;SDS011;12324;48.146;11.502;2024-02-21T04:51:09;4.65;;;1.83;;
24173;SDS011;12324;48.146;11.502;2024-02-21T04:53:36;5.55;;;1.92;;
24173;SDS011;12324;48.146;11.502;2024-02-21T04:56:04;4.78;;;1.90;;
24173;SDS011;12324;48.146;11.502;2024-02-21T04:58:31;5.35;;;1.85;;
24173;SDS011;12324;48.146;11.502;2024-02-21T05:00:58;4.15;;;1.90;;
24173;SDS011;12324;48.146;11.502;2024-02-21T05:03:26;6.10;;;2.22;;
24173;SDS011;12324;48.146;11.502;2024-02-21T05:05:53;2.95;;;1.85;;
24173;SDS011;12324;48.146;11.502;2024-02-21T05:08:20;9.25;;;2.00;;
24173;SDS011;12324;48.146;11.502;2024-02-21T05:10:47;2.35;;;1.70;;
24173;SDS011;12324;48.146;11.502;2024-02-21T05:13:15;3.45;;;1.80;;
24173;SDS011;12324;48.146;11.502;2024-02-21T05:15:42;7.03;;;2.00;;
24173;SDS011;12324;48.146;11.502;2024-02-21T05:18:09;4.68;;;2.17;;
24173;SDS011;12324;48.146;11.502;2024-02-21T05:20:37;3.08;;;1.90;;
24173;SDS011;12324;48.146;11.502;2024-02-21T05:23:04;6.95;;;1.73;;
24173;SDS011;12324;48.146;11.502;2024-02-21T05:25:31;4.30;;;1.92;;
24173;SDS011;12324;48.146;11.502;2024-02-21T05:27:58;6.05;;;2.42;;
24173;SDS011;12324;48.146;11.502;2024-02-21T05:30:28;5.75;;;2.05;;
24173;SDS011;12324;48.146;11.502;2024-02-21T05:32:56;6.55;;;2.15;;
24173;SDS011;12324;48.146;11.502;2024-02-21T05:35:27;3.10;;;1.52;;
24173;SDS011;12324;48.146;11.502;2024-02-21T05:37:55;4.97;;;1.73;;
24173;SDS011;12324;48.146;11.502;2024-02-21T05:40:22;5.05;;;2.00;;
24173;SDS011;12324;48.146;11.502;2024-02-21T05:42:50;3.55;;;1.80;;
24173;SDS011;12324;48.146;11.502;2024-02-21T05:45:18;7.78;;;1.90;;
24173;SDS011;12324;48.146;11.502;2024-02-21T05:47:45;4.03;;;1.83;;
24173;SDS011;12324;48.146;11.502;2024-02-21T05:50:12;3.45;;;1.92;;
24173;SDS011;12324;48.146;11.502;2024-02-21T05:52:40;3.80;;;1.70;;
24173;SDS011;12324;48.146;11.502;2024-02-21T05:55:07;7.35;;;1.77;;
24173;SDS011;12324;48.146;11.502;2024-02-21T05:57:37;7.97;;;2.10;;
24173;SDS011;12324;48.146;11.502;2024-02-21T06:00:05;2.88;;;1.40;;
24173;SDS011;12324;48.146;11.502;2024-02-21T06:02:32;5.20;;;1.65;;
24173;SDS011;12324;48.146;11.502;2024-02-21T06:05:00;5.70;;;2.08;;
24173;SDS011;12324;48.146;11.502;2024-02-21T06:07:27;3.63;;;1.40;;
24173;SDS011;12324;48.146;11.502;2024-02-21T06:09:54;4.68;;;1.95;;
24173;SDS011;12324;48.146;11.502;2024-02-21T06:12:22;4.50;;;2.25;;
24173;SDS011;12324;48.146;11.502;2024-02-21T06:14:49;3.85;;;1.73;;
24173;SDS011;12324;48.146;11.502;2024-02-21T06:17:16;2.30;;;1.40;;
24173;SDS011;12324;48.146;11.502;2024-02-21T06:19:43;6.57;;;2.60;;
24173;SDS011;12324;48.146;11.502;2024-02-21T06:22:11;4.57;;;1.90;;
24173;SDS011;12324;48.146;11.502;2024-02-21T06:24:39;9.50;;;1.90;;
24173;SDS011;12324;48.146;11.502;2024-02-21T06:27:06;5.85;;;1.75;;
24173;SDS011;12324;48.146;11.502;2024-02-21T06:29:36;5.53;;;2.00;;
24173;SDS011;12324;48.146;11.502;2024-02-21T06:32:03;10.32;;;2.05;;
24173;SDS011;12324;48.146;11.502;2024-02-21T06:34:31;5.38;;;2.13;;
24173;SDS011;12324;48.146;11.502;2024-02-21T06:37:00;4.85;;;1.95;;
24173;SDS011;12324;48.146;11.502;2024-02-21T06:39:27;6.30;;;1.77;;
24173;SDS011;12324;48.146;11.502;2024-02-21T06:41:55;11.73;;;2.00;;
24173;SDS011;12324;48.146;11.502;2024-02-21T06:44:28;4.57;;;1.70;;
24173;SDS011;12324;48.146;11.502;2024-02-21T06:46:55;5.45;;;2.00;;
24173;SDS011;12324;48.146;11.502;2024-02-21T06:49:22;6.30;;;1.88;;
24173;SDS011;12324;48.146;11.502;2024-02-21T06:51:50;4.30;;;1.60;;
24173;SDS011;12324;48.146;11.502;2024-02-21T06:54:17;7.38;;;2.35;;
24173;SDS011;12324;48.146;11.502;2024-02-21T06:56:44;4.97;;;1.73;;
24173;SDS011;12324;48.146;11.502;2024-02-21T06:59:11;8.38;;;2.45;;
24173;SDS011;12324;48.146;11.502;2024-02-21T07:01:45;3.97;;;1.75;;
24173;SDS011;12324;48.146;11.502;2024-02-21T07:04:13;3.42;;;1.88;;
24173;SDS011;12324;48.146;11.502;2024-02-21T07:06:41;6.15;;;1.98;;
24173;SDS011;12324;48.146;11.502;2024-02-21T07:09:08;8.85;;;2.30;;
24173;SDS011;12324;48.146;11.502;2024-02-21T07:11:35;4.80;;;2.03;;
24173;SDS011;12324;48.146;11.502;2024-02-21T07:14:03;4.53;;;1.92;;
24173;SDS011;12324;48.146;11.502;2024-02-21T07:16:30;5.75;;;2.05;;
24173;SDS011;12324;48.146;11.502;2024-02-21T07:18:59;8.27;;;1.90;;
24173;SDS011;12324;48.146;11.502;2024-02-21T07:21:26;3.65;;;1.95;;
24173;SDS011;12324;48.146;11.502;2024-02-21T07:23:54;4.55;;;2.40;;
24173;SDS011;12324;48.146;11.502;2024-02-21T07:26:21;4.93;;;2.10;;
24173;SDS011;12324;48.146;11.502;2024-02-21T07:28:51;6.20;;;2.20;;
24173;SDS011;12324;48.146;11.502;2024-02-21T07:31:18;4.22;;;1.98;;
24173;SDS011;12324;48.146;11.502;2024-02-21T07:33:45;4.60;;;1.80;;
24173;SDS011;12324;48.146;11.502;2024-02-21T07:36:14;3.13;;;1.88;;
24173;SDS011;12324;48.146;11.502;2024-02-21T07:38:41;3.08;;;1.52;;
24173;SDS011;12324;48.146;11.502;2024-02-21T07:41:09;4.85;;;2.33;;
24173;SDS011;12324;48.146;11.502;2024-02-21T07:43:36;2.67;;;1.52;;
24173;SDS011;12324;48.146;11.502;2024-02-21T07:46:03;4.45;;;1.92;;
24173;SDS011;12324;48.146;11.502;2024-02-21T07:48:30;6.53;;;2.05;;
24173;SDS011;12324;48.146;11.502;2024-02-21T07:51:00;3.88;;;2.00;;
24173;SDS011;12324;48.146;11.502;2024-02-21T07:53:28;5.93;;;1.90;;
24173;SDS011;12324;48.146;11.502;2024-02-21T07:55:55;3.85;;;2.17;;
24173;SDS011;12324;48.146;11.502;2024-02-21T07:58:22;3.10;;;2.00;;
24173;SDS011;12324;48.146;11.502;2024-02-21T08:00:49;2.55;;;1.60;;
24173;SDS011;12324;48.146;11.502;2024-02-21T08:03:16;4.82;;;2.20;;
24173;SDS011;12324;48.146;11.502;2024-02-21T08:05:44;4.25;;;1.70;;
24173;SDS011;12324;48.146;11.502;2024-02-21T08:08:12;4.55;;;1.98;;
24173;SDS011;12324;48.146;11.502;2024-02-21T08:10:44;2.00;;;1.53;;
24173;SDS011;12324;48.146;11.502;2024-02-21T08:13:12;4.53;;;1.58;;
24173;SDS011;12324;48.146;11.502;2024-02-21T08:15:39;4.15;;;1.70;;
24173;SDS011;12324;48.146;11.502;2024-02-21T08:18:08;4.50;;;1.77;;
24173;SDS011;12324;48.146;11.502;2024-02-21T08:20:35;4.47;;;1.92;;
24173;SDS011;12324;48.146;11.502;2024-02-21T08:23:02;5.60;;;1.98;;
24173;SDS011;12324;48.146;11.502;2024-02-21T08:25:29;4.95;;;1.90;;
24173;SDS011;12324;48.146;11.502;2024-02-21T08:27:58;3.40;;;1.42;;
24173;SDS011;12324;48.146;11.502;2024-02-21T08:30:25;6.43;;;1.70;;
24173;SDS011;12324;48.146;11.502;2024-02-21T08:32:53;4.85;;;1.67;;
24173;SDS011;12324;48.146;11.502;2024-02-21T08:35:21;4.13;;;1.73;;
24173;SDS011;12324;48.146;11.502;2024-02-21T08:37:48;3.75;;;1.50;;
24173;SDS011;12324;48.146;11.502;2024-02-21T08:40:15;3.40;;;1.60;;
24173;SDS011;12324;48.146;11.502;2024-02-21T08:42:48;2.97;;;1.35;;
24173;SDS011;12324;48.146;11.502;2024-02-21T08:45:16;2.83;;;1.30;;
24173;SDS011;12324;48.146;11.502;2024-02-21T08:47:43;2.95;;;1.48;;
24173;SDS011;12324;48.146;11.502;2024-02-21T08:50:11;5.13;;;1.92;;
24173;SDS011;12324;48.146;11.502;2024-02-21T08:52:53;4.68;;;1.40;;
24173;SDS011;12324;48.146;11.502;2024-02-21T08:55:21;7.80;;;1.63;;
24173;SDS011;12324;48.146;11.502;2024-02-21T08:57:48;3.60;;;1.58;;
24173;SDS011;12324;48.146;11.502;2024-02-21T09:00:16;5.40;;;1.58;;
24173;SDS011;12324;48.146;11.502;2024-02-21T09:02:43;4.10;;;1.67;;
24173;SDS011;12324;48.146;11.502;2024-02-21T09:05:11;2.83;;;1.30;;
24173;SDS011;12324;48.146;11.502;2024-02-21T09:07:38;1.95;;;1.15;;
24173;SDS011;12324;48.146;11.502;2024-02-21T09:10:05;8.00;;;1.60;;
24173;SDS011;12324;48.146;11.502;2024-02-21T09:12:33;1.50;;;0.95;;
24173;SDS011;12324;48.146;11.502;2024-02-21T09:15:00;3.13;;;1.20;;
24173;SDS011;12324;48.146;11.502;2024-02-21T09:17:27;4.00;;;1.10;;
24173;SDS011;12324;48.146;11.502;2024-02-21T09:19:55;5.25;;;1.27;;
24173;SDS011;12324;48.146;11.502;2024-02-21T09:22:26;0.80;;;0.80;;
24173;SDS011;12324;48.146;11.502;2024-02-21T09:24:53;4.38;;;1.40;;
24173;SDS011;12324;48.146;11.502;2024-02-21T09:27:20;3.25;;;1.38;;
24173;SDS011;12324;48.146;11.502;2024-02-21T09:29:48;2.88;;;1.40;;
24173;SDS011;12324;48.146;11.502;2024-02-21T09:32:16;5.25;;;1.63;;
24173;SDS011;12324;48.146;11.502;2024-02-21T09:34:43;3.25;;;1.25;;
24173;SDS011;12324;48.146;11.502;2024-02-21T09:37:11;2.95;;;1.27;;
24173;SDS011;12324;48.146;11.502;2024-02-21T09:39:38;1.90;;;1.20;;
24173;SDS011;12324;48.146;11.502;2024-02-21T09:42:06;1.30;;;1.15;;
24173;SDS011;12324;48.146;11.502;2024-02-21T09:44:36;2.63;;;1.40;;
24173;SDS011;12324;48.146;11.502;2024-02-21T09:47:12;6.55;;;1.48;;
24173;SDS011;12324;48.146;11.502;2024-02-21T09:49:42;0.93;;;0.88;;
24173;SDS011;12324;48.146;11.502;2024-02-21T09:52:11;2.38;;;1.00;;
24173;SDS011;12324;48.146;11.502;2024-02-21T09:54:40;1.83;;;1.10;;
24173;SDS011;12324;48.146;11.502;2024-02-21T09:57:11;3.78;;;1.42;;
24173;SDS011;12324;48.146;11.502;2024-02-21T09:59:39;1.63;;;1.30;;
24173;SDS011;12324;48.146;11.502;2024-02-21T10:02:08;1.80;;;1.17;;
24173;SDS011;12324;48.146;11.502;2024-02-21T10:04:35;6.28;;;2.03;;
24173;SDS011;12324;48.146;11.502;2024-02-21T10:07:03;3.67;;;1.20;;
24173;SDS011;12324;48.146;11.502;2024-02-21T10:09:30;1.67;;;1.13;;
24173;SDS011;12324;48.146;11.502;2024-02-21T10:12:09;1.33;;;1.00;;
24173;SDS011;12324;48.146;11.502;2024-02-21T10:14:38;2.90;;;1.30;;
24173;SDS011;12324;48.146;11.502;2024-02-21T10:17:05;3.28;;;1.10;;
24173;SDS011;12324;48.146;11.502;2024-02-21T10:19:36;1.10;;;0.90;;
24173;SDS011;12324;48.146;11.502;2024-02-21T10:22:07;1.98;;;1.20;;
24173;SDS011;12324;48.146;11.502;2024-02-21T10:24:34;5.28;;;1.27;;
24173;SDS011;12324;48.146;11.502;2024-02-21T10:27:05;1.35;;;1.17;;
24173;SDS011;12324;48.146;11.502;2024-02-21T10:29:37;4.83;;;1.47;;
24173;SDS011;12324;48.146;11.502;2024-02-21T10:32:11;2.20;;;1.33;;
24173;SDS011;12324;48.146;11.502;2024-02-21T10:34:40;5.40;;;1.42;;
24173;SDS011;12324;48.146;11.502;2024-02-21T10:37:09;6.10;;;1.33;;
24173;SDS011;12324;48.146;11.502;2024-02-21T10:39:38;2.78;;;1.10;;
24173;SDS011;12324;48.146;11.502;2024-02-21T10:42:06;2.88;;;1.60;;
24173;SDS011;12324;48.146;11.502;2024-02-21T10:44:37;4.90;;;1.15;;
24173;SDS011;12324;48.146;11.502;2024-02-21T10:47:10;6.47;;;1.30;;
24173;SDS011;12324;48.146;11.502;2024-02-21T10:49:39;5.40;;;1.63;;
24173;SDS011;12324;48.146;11.502;2024-02-21T10:52:14;1.63;;;0.93;;
24173;SDS011;12324;48.146;11.502;2024-02-21T10:57:12;3.80;;;1.25;;
24173;SDS011;12324;48.146;11.502;2024-02-21T10:59:40;7.47;;;3.67;;
24173;SDS011;12324;48.146;11.502;2024-02-21T11:02:07;3.17;;;1.35;;
24173;SDS011;12324;48.146;11.502;2024-02-21T11:04:35;1.10;;;1.00;;
24173;SDS011;12324;48.146;11.502;2024-02-21T11:07:05;4.35;;;1.40;;
24173;SDS011;12324;48.146;11.502;2024-02-21T11:12:04;1.90;;;1.13;;
24173;SDS011;12324;48.146;11.502;2024-02-21T11:14:32;4.70;;;1.33;;
24173;SDS011;12324;48.146;11.502;2024-02-21T11:17:03;2.42;;;1.00;;
24173;SDS011;12324;48.146;11.502;2024-02-21T11:19:41;1.65;;;1.23;;
24173;SDS011;12324;48.146;11.502;2024-02-21T11:22:15;0.80;;;0.68;;
24173;SDS011;12324;48.146;11.502;2024-02-21T11:24:43;0.98;;;0.88;;
24173;SDS011;12324;48.146;11.502;2024-02-21T11:27:18;1.85;;;0.88;;
24173;SDS011;12324;48.146;11.502;2024-02-21T11:29:47;2.50;;;0.90;;
24173;SDS011;12324;48.146;11.502;2024-02-21T11:32:19;1.40;;;0.73;;
24173;SDS011;12324;48.146;11.502;2024-02-21T11:34:59;2.17;;;0.88;;
24173;SDS011;12324;48.146;11.502;2024-02-21T11:37:35;2.08;;;1.00;;
24173;SDS011;12324;48.146;11.502;2024-02-21T11:40:06;1.70;;;0.90;;
24173;SDS011;12324;48.146;11.502;2024-02-21T11:42:38;1.52;;;1.10;;
24173;SDS011;12324;48.146;11.502;2024-02-21T11:45:05;1.00;;;0.80;;
24173;SDS011;12324;48.146;11.502;2024-02-21T11:47:33;2.92;;;0.93;;
24173;SDS011;12324;48.146;11.502;2024-02-21T11:50:00;2.60;;;0.90;;
24173;SDS011;12324;48.146;11.502;2024-02-21T11:52:27;0.82;;;0.70;;
24173;SDS011;12324;48.146;11.502;2024-02-21T11:54:55;3.05;;;1.13;;
24173;SDS011;12324;48.146;11.502;2024-02-21T11:57:24;2.17;;;1.05;;
24173;SDS011;12324;48.146;11.502;2024-02-21T11:59:51;1.30;;;1.00;;
24173;SDS011;12324;48.146;11.502;2024-02-21T12:02:25;1.10;;;1.00;;
24173;SDS011;12324;48.146;11.502;2024-02-21T12:04:53;3.55;;;1.08;;
24173;SDS011;12324;48.146;11.502;2024-02-21T12:07:21;0.63;;;0.63;;
24173;SDS011;12324;48.146;11.502;2024-02-21T12:09:50;4.35;;;1.00;;
24173;SDS011;12324;48.146;11.502;2024-02-21T12:12:19;0.85;;;0.73;;
24173;SDS011;12324;48.146;11.502;2024-02-21T12:14:47;3.38;;;1.10;;
24173;SDS011;12324;48.146;11.502;2024-02-21T12:17:20;1.20;;;0.77;;
24173;SDS011;12324;48.146;11.502;2024-02-21T12:19:47;3.33;;;0.88;;
24173;SDS011;12324;48.146;11.502;2024-02-21T12:22:18;1.15;;;1.00;;
24173;SDS011;12324;48.146;11.502;2024-02-21T12:24:46;1.33;;;1.02;;
24173;SDS011;12324;48.146;11.502;2024-02-21T12:27:14;1.83;;;1.10;;
24173;SDS011;12324;48.146;11.502;2024-02-21T12:29:41;1.95;;;0.93;;
24173;SDS011;12324;48.146;11.502;2024-02-21T12:32:07;1.27;;;0.85;;
24173;SDS011;12324;48.146;11.502;2024-02-21T12:34:35;1.00;;;0.77;;
24173;SDS011;12324;48.146;11.502;2024-02-21T12:37:18;3.40;;;1.05;;
24173;SDS011;12324;48.146;11.502;2024-02-21T12:39:47;1.15;;;0.73;;
24173;SDS011;12324;48.146;11.502;2024-02-21T12:42:16;1.90;;;0.80;;
24173;SDS011;12324;48.146;11.502;2024-02-21T12:44:43;2.70;;;0.80;;
24173;SDS011;12324;48.146;11.502;2024-02-21T12:47:10;0.70;;;0.70;;
24173;SDS011;12324;48.146;11.502;2024-02-21T12:49:37;4.60;;;0.85;;
24173;SDS011;12324;48.146;11.502;2024-02-21T12:52:10;2.25;;;1.00;;
24173;SDS011;12324;48.146;11.502;2024-02-21T12:54:37;0.70;;;0.70;;
24173;SDS011;12324;48.146;11.502;2024-02-21T12:57:04;3.95;;;1.00;;
24173;SDS011;12324;48.146;11.502;2024-02-21T12:59:32;0.77;;;0.75;;
24173;SDS011;12324;48.146;11.502;2024-02-21T13:01:59;1.67;;;0.80;;
24173;SDS011;12324;48.146;11.502;2024-02-21T13:04:26;1.98;;;0.85;;
24173;SDS011;12324;48.146;11.502;2024-02-21T13:06:54;1.65;;;0.70;;
24173;SDS011;12324;48.146;11.502;2024-02-21T13:09:24;3.42;;;0.88;;
24173;SDS011;12324;48.146;11.502;2024-02-21T13:11:51;1.15;;;0.70;;
24173;SDS011;12324;48.146;11.502;2024-02-21T13:14:19;0.95;;;0.80;;
24173;SDS011;12324;48.146;11.502;2024-02-21T13:16:46;6.75;;;0.93;;
24173;SDS011;12324;48.146;11.502;2024-02-21T13:19:15;5.20;;;0.70;;
24173;SDS011;12324;48.146;11.502;2024-02-21T13:21:44;1.17;;;0.70;;
24173;SDS011;12324;48.146;11.502;2024-02-21T13:24:11;0.80;;;0.70;;
24173;SDS011;12324;48.146;11.502;2024-02-21T13:26:39;1.42;;;0.90;;
24173;SDS011;12324;48.146;11.502;2024-02-21T13:29:06;1.80;;;0.90;;
24173;SDS011;12324;48.146;11.502;2024-02-21T13:31:33;1.13;;;0.73;;
24173;SDS011;12324;48.146;11.502;2024-02-21T13:34:00;1.63;;;0.90;;
24173;SDS011;12324;48.146;11.502;2024-02-21T13:36:28;1.08;;;0.80;;
24173;SDS011;12324;48.146;11.502;2024-02-21T13:38:55;4.10;;;1.13;;
24173;SDS011;12324;48.146;11.502;2024-02-21T13:41:22;5.45;;;0.98;;
24173;SDS011;12324;48.146;11.502;2024-02-21T13:43:50;3.97;;;0.85;;
24173;SDS011;12324;48.146;11.502;2024-02-21T13:46:17;1.38;;;0.70;;
24173;SDS011;12324;48.146;11.502;2024-02-21T13:48:44;1.05;;;0.57;;
24173;SDS011;12324;48.146;11.502;2024-02-21T13:51:11;2.20;;;0.70;;
24173;SDS011;12324;48.146;11.502;2024-02-21T13:53:38;3.15;;;0.90;;
24173;SDS011;12324;48.146;11.502;2024-02-21T13:56:05;0.75;;;0.52;;
24173;SDS011;12324;48.146;11.502;2024-02-21T13:58:35;3.83;;;1.02;;
24173;SDS011;12324;48.146;11.502;2024-02-21T14:01:03;3.65;;;0.98;;
24173;SDS011;12324;48.146;11.502;2024-02-21T14:03:32;0.63;;;0.55;;
24173;SDS011;12324;48.146;11.502;2024-02-21T14:05:59;1.95;;;0.88;;
24173;SDS011;12324;48.146;11.502;2024-02-21T14:08:27;1.48;;;0.80;;
24173;SDS011;12324;48.146;11.502;2024-02-21T14:10:54;1.33;;;0.88;;
24173;SDS011;12324;48.146;11.502;2024-02-21T14:13:22;2.25;;;1.10;;
24173;SDS011;12324;48.146;11.502;2024-02-21T14:15:49;4.88;;;0.90;;
24173;SDS011;12324;48.146;11.502;2024-02-21T14:18:16;1.75;;;1.00;;
24173;SDS011;12324;48.146;11.502;2024-02-21T14:20:43;1.40;;;0.90;;
24173;SDS011;12324;48.146;11.502;2024-02-21T14:23:09;1.80;;;0.98;;
24173;SDS011;12324;48.146;11.502;2024-02-21T14:25:37;4.88;;;1.40;;
24173;SDS011;12324;48.146;11.502;2024-02-21T14:28:05;2.67;;;1.20;;
24173;SDS011;12324;48.146;11.502;2024-02-21T14:30:32;1.48;;;0.88;;
24173;SDS011;12324;48.146;11.502;2024-02-21T14:32:59;5.13;;;1.23;;
24173;SDS011;12324;48.146;11.502;2024-02-21T14:35:26;2.20;;;0.98;;
24173;SDS011;12324;48.146;11.502;2024-02-21T14:37:52;4.55;;;1.02;;
24173;SDS011;12324;48.146;11.502;2024-02-21T14:40:21;5.70;;;1.90;;
24173;SDS011;12324;48.146;11.502;2024-02-21T14:42:48;1.98;;;0.80;;